Time;durP1;ratioP1;P1;durP2;ratioP2;P2;SDS_P1;SDS_P2;PMS_P1;PMS_P2;Temp;Humidity;BMP_temperature;BMP_pressure;BME280_temperature;BME280_humidity;BME280_pressure;Samples;Min_cycle;Max_cycle;Signal;HPM_P1;HPM_P2
2023/01/12 07:01:45;;;;;;;;;;;;;;;5.99;74.71;98155.25;5475181;24;19932;-65
2023/01/12 07:04:10;;;;;;;;;;;;;;;6.03;74.70;98156.81;4876454;29;20380;-65
2023/01/12 07:06:35;;;;;;;;;;;;;;;6.14;73.59;98155.31;4881468;29;19916;-65
2023/01/12 07:09:01;;;;;;;;;;;;;;;6.13;74.18;98152.81;4879241;29;19920;-65
2023/01/12 07:11:26;;;;;;;;;;;;;;;6.09;74.10;98154.72;4880218;29;20280;-65
2023/01/12 07:13:52;;;;;;;;;;;;;;;6.07;74.00;98153.94;4846674;29;19916;-66
2023/01/12 07:16:17;;;;;;;;;;;;;;;6.10;74.35;98160.78;4844695;29;19924;-65
2023/01/12 07:18:42;;;;;;;;;;;;;;;6.16;74.04;98153.50;4850750;29;20335;-66
2023/01/12 07:21:08;;;;;;;;;;;;;;;6.23;73.71;98154.03;4857821;29;20304;-65
2023/01/12 07:23:33;;;;;;;;;;;;;;;6.15;74.13;98156.16;4852865;29;19975;-66
2023/01/12 07:25:59;;;;;;;;;;;;;;;6.15;73.80;98153.56;4856061;29;19931;-65
2023/01/12 07:28:24;;;;;;;;;;;;;;;6.10;73.79;98158.16;4874815;29;20368;-66
2023/01/12 07:30:49;;;;;;;;;;;;;;;6.12;73.79;98159.75;4881211;29;20287;-66
2023/01/12 07:33:14;;;;;;;;;;;;;;;6.13;73.85;98160.63;4881335;29;20287;-65
2023/01/12 07:35:40;;;;;;;;;;;;;;;6.21;73.96;98145.44;4881144;29;20265;-66
2023/01/12 07:38:05;;;;;;;;;;;;;;;6.29;73.08;98150.22;4861805;29;20304;-66
2023/01/12 07:40:30;;;;;;;;;;;;;;;6.27;72.97;98149.50;4843016;29;20016;-65
2023/01/12 07:42:59;;;;;;;;;;;;;;;6.25;73.53;98146.94;4843974;29;20308;-66
2023/01/12 07:45:24;;;;;;;;;;;;;;;6.25;74.18;98136.53;4842625;29;19924;-66
2023/01/12 07:47:53;;;;;;;;;;;;;;;6.24;73.85;98134.84;4844026;29;19917;-66
2023/01/12 07:50:18;;;;;;;;;;;;;;;6.30;73.69;98139.75;4844053;29;19995;-66
2023/01/12 07:52:44;;;;;;;;;;;;;;;6.38;73.28;98139.34;4842646;29;20416;-66
2023/01/12 07:55:09;;;;;;;;;;;;;;;6.41;73.29;98137.41;4844018;29;19927;-66
2023/01/12 07:57:36;;;;;;;;;;;;;;;6.47;73.00;98136.25;4843774;29;19921;-66
2023/01/12 08:00:02;;;;;;;;;;;;;;;6.50;72.73;98130.84;4843823;29;19923;-65
2023/01/12 08:02:27;;;;;;;;;;;;;;;6.58;72.99;98125.25;4842513;29;19920;-66
2023/01/12 08:04:53;;;;;;;;;;;;;;;6.59;73.46;98121.72;4843412;29;19965;-65
2023/01/12 08:07:18;;;;;;;;;;;;;;;6.60;73.26;98106.00;4842413;29;19916;-65
2023/01/12 08:09:44;;;;;;;;;;;;;;;6.68;72.34;98129.06;4843640;29;20507;-65
2023/01/12 08:12:09;;;;;;;;;;;;;;;6.78;72.50;98116.34;4843868;29;19917;-68
2023/01/12 08:14:36;;;;;;;;;;;;;;;6.82;72.05;98118.72;4843380;29;19923;-65
2023/01/12 08:17:01;;;;;;;;;;;;;;;6.93;71.52;98122.50;4861289;29;19926;-67
2023/01/12 08:19:29;;;;;;;;;;;;;;;6.87;72.10;98119.28;4875508;29;19998;-66
2023/01/12 08:21:57;;;;;;;;;;;;;;;6.90;72.16;98121.72;4879161;29;19923;-66
2023/01/12 08:24:23;;;;;;;;;;;;;;;6.98;72.03;98116.09;4878928;29;19960;-65
2023/01/12 08:26:49;;;;;;;;;;;;;;;7.07;71.26;98125.19;4879306;29;19951;-64
2023/01/12 08:29:16;;;;;;;;;;;;;;;7.11;70.86;98116.25;4859141;29;19917;-66
2023/01/12 08:31:41;;;;;;;;;;;;;;;7.13;70.81;98119.63;4842065;29;20011;-65
2023/01/12 08:34:06;;;;;;;;;;;;;;;7.22;70.12;98116.50;4841751;29;20399;-66
2023/01/12 08:36:31;;;;;;;;;;;;;;;7.31;69.92;98117.75;4841915;29;20409;-65
2023/01/12 08:38:57;;;;;;;;;;;;;;;7.37;69.39;98126.06;4841935;29;19917;-66
2023/01/12 08:41:31;;;;;;;;;;;;;;;7.40;69.95;98117.25;4826610;29;19924;-65
2023/01/12 08:44:03;;;;;;;;;;;;;;;7.44;69.24;98115.28;4827475;29;19972;-67
2023/01/12 08:46:34;;;;;;;;;;;;;;;7.51;68.54;98124.44;4843335;29;19972;-65
2023/01/12 08:48:59;;;;;;;;;;;;;;;7.52;68.20;98100.03;4842875;29;19924;-66
2023/01/12 08:51:24;;;;;;;;;;;;;;;7.50;69.33;98102.75;4841668;29;19917;-65
2023/01/12 08:53:50;;;;;;;;;;;;;;;7.53;68.89;98097.31;4841486;29;19916;-66
2023/01/12 08:56:15;;;;;;;;;;;;;;;7.47;69.41;98086.41;4826242;29;20010;-66
2023/01/12 08:58:41;;;;;;;;;;;;;;;7.46;69.15;98090.75;4841130;29;20004;-65
2023/01/12 09:01:08;;;;;;;;;;;;;;;7.45;69.18;98083.03;4841363;29;19948;-65
2023/01/12 09:03:33;;;;;;;;;;;;;;;7.45;69.30;98088.25;4841567;29;19916;-66
2023/01/12 09:05:59;;;;;;;;;;;;;;;7.53;68.57;98099.09;4841625;29;19926;-65
2023/01/12 09:08:24;;;;;;;;;;;;;;;7.58;68.13;98110.13;4842796;29;19932;-66
2023/01/12 09:10:49;;;;;;;;;;;;;;;7.56;69.03;98111.97;4842572;29;20381;-66
2023/01/12 09:13:15;;;;;;;;;;;;;;;7.60;69.21;98109.09;4841109;29;20381;-66
2023/01/12 09:15:40;;;;;;;;;;;;;;;7.69;68.41;98107.72;4844672;29;20449;-67
2023/01/12 09:18:05;;;;;;;;;;;;;;;7.71;68.96;98103.25;4871511;29;19919;-65
2023/01/12 09:20:32;;;;;;;;;;;;;;;7.76;67.94;98097.75;4854775;29;19923;-66
2023/01/12 09:22:57;;;;;;;;;;;;;;;7.85;67.56;98095.44;4841015;29;19921;-65
2023/01/12 09:25:22;;;;;;;;;;;;;;;7.83;67.59;98109.50;4840818;29;19947;-66
2023/01/12 09:27:48;;;;;;;;;;;;;;;7.83;67.56;98086.00;4841136;29;19916;-65
2023/01/12 09:30:13;;;;;;;;;;;;;;;7.89;67.38;98097.88;4842268;29;19920;-67
2023/01/12 09:32:38;;;;;;;;;;;;;;;7.90;67.82;98089.09;4842041;29;19923;-66
2023/01/12 09:35:03;;;;;;;;;;;;;;;7.93;66.80;98084.53;4841948;29;19928;-66
2023/01/12 09:37:29;;;;;;;;;;;;;;;8.00;67.56;98098.06;4842424;29;20293;-66
2023/01/12 09:39:54;;;;;;;;;;;;;;;8.06;67.18;98087.25;4842050;29;20295;-66
2023/01/12 09:47:55;;;;;;;;;;;;;;;8.08;66.70;98096.66;4840986;29;19923;-66
2023/01/12 09:50:52;;;;;;;;;;;;;;;8.09;66.39;98097.53;4840951;29;19917;-66
2023/01/12 09:53:19;;;;;;;;;;;;;;;8.07;67.20;98097.59;4802842;29;19953;-67
2023/01/12 09:55:44;;;;;;;;;;;;;;;8.10;67.14;98091.38;4773049;29;20429;-66
2023/01/12 09:58:14;;;;;;;;;;;;;;;8.08;67.63;98094.06;4803150;29;19921;-65
2023/01/12 10:00:40;;;;;;;;;;;;;;;8.17;67.53;98100.50;4788097;29;20415;-66
2023/01/12 10:03:06;;;;;;;;;;;;;;;8.17;66.94;98087.44;4802728;29;19964;-66
2023/01/12 10:05:44;;;;;;;;;;;;;;;8.18;67.16;98091.72;4788108;29;20381;-65
2023/01/12 10:08:18;;;;;;;;;;;;;;;8.06;67.24;98084.66;4784755;30;19918;-66
2023/01/12 10:10:46;;;;;;;;;;;;;;;7.97;67.12;98090.41;4790771;29;20016;-66
2023/01/12 10:13:13;;;;;;;;;;;;;;;7.93;67.52;98100.22;4787831;29;19983;-66
2023/01/12 10:15:48;;;;;;;;;;;;;;;7.99;67.17;98083.34;4788830;29;19917;-66
2023/01/12 10:18:31;;;;;;;;;;;;;;;8.03;67.47;98061.31;4798500;29;20393;-68
2023/01/12 10:20:57;;;;;;;;;;;;;;;8.06;66.79;98076.81;4821156;29;20416;-65
2023/01/12 10:23:24;;;;;;;;;;;;;;;8.09;66.93;98084.47;4805820;29;19917;-66
2023/01/12 10:26:15;;;;;;;;;;;;;;;8.14;66.82;98077.19;4805902;29;20406;-65
2023/01/12 10:28:41;;;;;;;;;;;;;;;8.21;66.68;98083.72;4821326;29;19917;-66
2023/01/12 10:31:08;;;;;;;;;;;;;;;8.21;66.64;98077.66;4825030;29;20384;-66
2023/01/12 10:33:33;;;;;;;;;;;;;;;8.21;66.59;98067.19;4825092;29;20003;-66
2023/01/12 10:36:01;;;;;;;;;;;;;;;8.27;66.66;98067.66;4841401;29;20012;-66
2023/01/12 10:38:31;;;;;;;;;;;;;;;8.24;66.51;98061.78;4840217;29;19921;-66
2023/01/12 10:41:02;;;;;;;;;;;;;;;8.27;66.42;98066.84;4840243;29;19927;-67
2023/01/12 10:43:32;;;;;;;;;;;;;;;8.28;67.40;98063.28;4841200;29;19916;-66
2023/01/12 10:46:01;;;;;;;;;;;;;;;8.25;67.42;98071.28;4841905;29;19972;-66
2023/01/12 10:48:27;;;;;;;;;;;;;;;8.20;66.90;98061.13;4840232;29;19927;-67
2023/01/12 10:50:56;;;;;;;;;;;;;;;8.19;67.19;98059.47;4841346;29;19916;-66
2023/01/12 10:53:25;;;;;;;;;;;;;;;8.18;67.86;98052.53;4840061;29;19999;-66
2023/01/12 10:55:50;;;;;;;;;;;;;;;8.17;67.76;98048.25;4840223;29;19917;-66
2023/01/12 10:58:24;;;;;;;;;;;;;;;8.16;67.76;98064.88;4840046;29;20345;-67
2023/01/12 11:00:50;;;;;;;;;;;;;;;8.13;68.13;98059.00;4840024;29;19916;-66
2023/01/12 11:03:28;;;;;;;;;;;;;;;8.17;67.89;98056.09;4824548;29;20425;-66
2023/01/12 11:05:53;;;;;;;;;;;;;;;8.21;68.04;98057.59;4841250;29;19928;-66
2023/01/12 11:08:22;;;;;;;;;;;;;;;8.26;67.26;98060.75;4840129;29;19917;-66
2023/01/12 11:10:47;;;;;;;;;;;;;;;8.32;67.63;98052.53;4841460;29;19921;-66
2023/01/12 11:13:22;;;;;;;;;;;;;;;8.36;67.20;98060.19;4840847;29;19923;-66
2023/01/12 11:15:53;;;;;;;;;;;;;;;8.44;66.98;98052.75;4847211;29;20373;-66
2023/01/12 11:18:18;;;;;;;;;;;;;;;8.44;67.24;98044.91;4847881;29;19926;-67
2023/01/12 11:20:47;;;;;;;;;;;;;;;8.49;67.36;98035.00;4842521;29;20014;-66
2023/01/12 11:23:24;;;;;;;;;;;;;;;8.55;66.82;98035.44;4842890;29;20381;-66
2023/01/12 11:25:51;;;;;;;;;;;;;;;8.54;66.71;98028.56;4843486;29;20330;-65
2023/01/12 11:28:23;;;;;;;;;;;;;;;8.54;66.31;98027.72;4842907;29;19920;-65
2023/01/12 11:30:53;;;;;;;;;;;;;;;8.52;67.01;98021.75;4842986;29;19980;-65
2023/01/12 11:33:19;;;;;;;;;;;;;;;8.57;66.40;98022.31;4842947;29;20208;-66
2023/01/12 11:36:03;;;;;;;;;;;;;;;8.59;66.83;98012.56;4843211;29;19920;-65
2023/01/12 11:38:44;;;;;;;;;;;;;;;8.65;66.07;98020.03;4844185;29;19916;-65
2023/01/12 11:41:20;;;;;;;;;;;;;;;8.64;66.30;98018.34;4827501;29;19924;-66
2023/01/12 11:43:49;;;;;;;;;;;;;;;8.66;66.14;98020.88;4842684;29;19924;-66
2023/01/12 11:46:26;;;;;;;;;;;;;;;8.66;66.25;98010.41;4843971;29;19916;-66
2023/01/12 11:49:00;;;;;;;;;;;;;;;8.66;66.87;98016.47;4844012;29;19965;-66
2023/01/12 11:51:25;;;;;;;;;;;;;;;8.71;66.16;98010.97;4843959;29;19956;-65
2023/01/12 11:53:50;;;;;;;;;;;;;;;8.71;66.21;98003.97;4842910;29;19952;-66
2023/01/12 11:56:36;;;;;;;;;;;;;;;8.71;66.78;98003.97;4843802;29;19924;-65
2023/01/12 11:59:17;;;;;;;;;;;;;;;8.70;66.83;97994.41;4842741;29;20023;-65
2023/01/12 12:02:00;;;;;;;;;;;;;;;8.73;66.61;97996.00;4843688;29;19920;-66
2023/01/12 12:04:39;;;;;;;;;;;;;;;8.71;65.94;98000.50;4843614;29;20398;-66
2023/01/12 12:07:24;;;;;;;;;;;;;;;8.71;66.40;97990.88;4842449;29;20293;-66
2023/01/12 12:09:52;;;;;;;;;;;;;;;8.72;67.03;97984.72;4842853;29;19951;-66
2023/01/12 12:12:33;;;;;;;;;;;;;;;8.87;65.98;97984.66;4843643;29;19964;-66
2023/01/12 12:15:31;;;;;;;;;;;;;;;8.92;65.71;97979.97;4842230;29;19916;-65
2023/01/12 12:18:02;;;;;;;;;;;;;;;8.92;66.16;97972.13;4848223;29;20377;-66
2023/01/12 12:20:31;;;;;;;;;;;;;;;8.93;66.37;97982.47;4860246;29;20377;-65
2023/01/12 12:23:06;;;;;;;;;;;;;;;8.92;66.52;97974.75;4856458;29;19924;-66
2023/01/12 12:25:35;;;;;;;;;;;;;;;8.99;65.65;97971.63;4858851;29;19920;-65
2023/01/12 12:28:07;;;;;;;;;;;;;;;8.96;66.06;97970.97;4866295;29;20379;-66
2023/01/12 12:30:32;;;;;;;;;;;;;;;8.95;66.21;97985.00;4860596;29;20434;-65
2023/01/12 12:32:58;;;;;;;;;;;;;;;8.97;65.84;97967.41;4861896;29;19920;-66
2023/01/12 12:35:29;;;;;;;;;;;;;;;8.96;66.13;97973.59;4872246;29;20437;-66
2023/01/12 12:38:13;;;;;;;;;;;;;;;8.96;65.92;97971.81;4874144;29;19932;-65
2023/01/12 12:46:29;;;;;;;;;;;;;;;8.97;65.77;97963.00;4862889;29;19949;-65
2023/01/12 12:48:59;;;;;;;;;;;;;;;8.98;66.27;97969.94;4861487;29;19920;-65
2023/01/12 12:51:24;;;;;;;;;;;;;;;8.97;66.27;97962.19;4860227;29;19924;-65
2023/01/12 12:53:51;;;;;;;;;;;;;;;9.07;66.49;97963.25;4858734;29;19920;-66
2023/01/12 12:56:16;;;;;;;;;;;;;;;9.09;65.94;97971.00;4878434;29;20308;-66
2023/01/12 12:58:42;;;;;;;;;;;;;;;9.21;64.96;97960.56;4878533;29;20394;-66
2023/01/12 13:01:21;;;;;;;;;;;;;;;9.21;65.49;97960.56;4860860;29;19917;-65
2023/01/12 13:03:50;;;;;;;;;;;;;;;9.20;65.79;97958.88;4842488;29;20416;-65
2023/01/12 13:06:15;;;;;;;;;;;;;;;9.19;66.30;97951.97;4841506;29;20373;-64
2023/01/12 13:08:41;;;;;;;;;;;;;;;9.20;66.04;97958.88;4850348;29;19963;-65
2023/01/12 13:11:06;;;;;;;;;;;;;;;9.16;66.85;97954.81;4876768;29;20010;-66
2023/01/12 13:13:32;;;;;;;;;;;;;;;9.09;67.35;97958.75;4863572;29;19920;-65
2023/01/12 13:16:16;;;;;;;;;;;;;;;9.08;67.35;97961.47;4859623;29;20035;-66
2023/01/12 13:18:42;;;;;;;;;;;;;;;9.13;67.05;97951.56;4847685;29;19923;-65
2023/01/12 13:21:26;;;;;;;;;;;;;;;9.09;67.06;97950.91;4843719;29;19920;-66
2023/01/12 13:23:51;;;;;;;;;;;;;;;9.02;67.88;97944.41;4866379;29;20407;-65
2023/01/12 13:26:32;;;;;;;;;;;;;;;9.06;67.73;97938.03;4858320;29;19924;-65
2023/01/12 13:29:15;;;;;;;;;;;;;;;9.08;67.99;97933.53;4858186;29;19975;-68
2023/01/12 13:31:41;;;;;;;;;;;;;;;9.12;68.09;97969.03;4860611;29;19920;-66
2023/01/12 13:34:25;;;;;;;;;;;;;;;9.18;67.73;97938.97;4859243;29;19920;-66
2023/01/12 13:37:08;;;;;;;;;;;;;;;9.21;67.50;97942.22;4852269;29;20381;-66
2023/01/12 13:39:35;;;;;;;;;;;;;;;9.20;68.37;97930.09;4858936;29;20036;-67
2023/01/12 19:03:49;;;;;;;;;;;;;;;8.80;70.26;97859.50;5780362;24;20807;-66
2023/01/12 19:06:22;;;;;;;;;;;;;;;8.86;69.92;97860.06;4873510;29;20419;-67
2023/01/12 19:11:32;;;;;;;;;;;;;;;8.80;70.74;97856.91;4879169;29;20351;-66
2023/01/12 19:19:27;;;;;;;;;;;;;;;8.84;70.21;97856.69;4864897;29;19928;-65
2023/01/12 19:30:05;;;;;;;;;;;;;;;8.86;69.80;97849.59;4859783;29;19936;-65
2023/01/12 19:32:30;;;;;;;;;;;;;;;8.85;69.74;97837.47;4862876;29;19928;-65
2023/01/12 19:34:55;;;;;;;;;;;;;;;8.79;70.33;97833.47;4854519;29;19920;-66
2023/01/12 19:37:21;;;;;;;;;;;;;;;8.73;70.09;97845.16;4860589;29;19920;-69
2023/01/12 19:40:06;;;;;;;;;;;;;;;8.73;70.00;97834.72;4863871;29;19920;-65
2023/01/12 19:45:15;;;;;;;;;;;;;;;8.77;69.71;97841.44;4857078;29;19968;-65
2023/01/12 19:47:41;;;;;;;;;;;;;;;8.72;70.20;97838.28;4861452;29;19920;-67
2023/01/12 19:50:06;;;;;;;;;;;;;;;8.69;70.42;97848.94;4866354;29;19920;-65
2023/01/12 19:52:34;;;;;;;;;;;;;;;8.66;70.36;97836.06;4860210;29;20400;-66
2023/01/12 19:55:01;;;;;;;;;;;;;;;8.69;69.92;97843.72;4869543;29;20010;-64
2023/01/12 19:57:26;;;;;;;;;;;;;;;8.70;70.38;97840.16;4859379;29;20373;-66
2023/01/12 19:59:51;;;;;;;;;;;;;;;8.70;70.26;97834.91;4868087;29;20022;-67
2023/01/12 20:02:17;;;;;;;;;;;;;;;8.66;70.36;97830.00;4855067;29;20011;-70
2023/01/12 20:04:42;;;;;;;;;;;;;;;8.70;70.00;97834.91;4867157;29;20015;-67
2023/01/12 20:07:07;;;;;;;;;;;;;;;8.62;70.02;97826.75;4851091;29;20011;-66
2023/01/12 20:09:32;;;;;;;;;;;;;;;8.61;70.08;97825.09;4858019;29;19924;-66
2023/01/12 20:11:57;;;;;;;;;;;;;;;8.59;70.33;97826.97;4873857;29;19920;-66
2023/01/12 20:14:23;;;;;;;;;;;;;;;8.64;69.93;97834.50;4876605;29;19919;-66
2023/01/12 20:16:48;;;;;;;;;;;;;;;8.58;70.08;97825.28;4865558;29;19927;-70
2023/01/12 20:19:13;;;;;;;;;;;;;;;8.64;69.61;97822.28;4855732;29;20010;-66
2023/01/12 20:21:39;;;;;;;;;;;;;;;8.64;69.91;97830.13;4860312;29;19924;-66
2023/01/12 20:24:04;;;;;;;;;;;;;;;8.63;69.86;97825.81;4856681;29;19923;-66
2023/01/12 20:26:30;;;;;;;;;;;;;;;8.66;69.64;97828.22;4861380;29;20384;-65
2023/01/12 20:28:55;;;;;;;;;;;;;;;8.70;69.31;97819.22;4857036;29;19920;-67
2023/01/12 20:31:20;;;;;;;;;;;;;;;8.67;69.72;97824.69;4865835;29;19927;-65
2023/01/12 20:33:45;;;;;;;;;;;;;;;8.64;69.83;97817.03;4868800;29;19916;-66
2023/01/12 20:36:11;;;;;;;;;;;;;;;8.64;69.84;97819.66;4860798;29;19924;-66
2023/01/12 20:38:36;;;;;;;;;;;;;;;8.76;68.93;97807.53;4869156;29;19981;-65
2023/01/12 20:41:05;;;;;;;;;;;;;;;8.70;69.40;97808.78;4856935;29;19924;-67
2023/01/12 20:43:30;;;;;;;;;;;;;;;8.72;69.44;97811.28;4861583;29;19927;-65
2023/01/12 20:45:55;;;;;;;;;;;;;;;8.71;69.51;97802.63;4866308;29;19919;-65
2023/01/12 20:48:20;;;;;;;;;;;;;;;8.72;69.69;97811.28;4859159;29;19920;-65
